Time;durP1;ratioP1;P1;durP2;ratioP2;P2;SDS_P1;SDS_P2;PMS_P1;PMS_P2;Temp;Humidity;BMP_temperature;BMP_pressure;BME280_temperature;BME280_humidity;BME280_pressure;Samples;Min_cycle;Max_cycle;Signal;HPM_P1;HPM_P2
2022/07/23 00:00:11;;;;;;;11.03;9.77;;;25.40;99.90;;;;;;5039879;28;20474;-64
2022/07/23 00:02:37;;;;;;;15.40;9.30;;;25.50;99.90;;;;;;5037633;28;20709;-66
2022/07/23 00:05:03;;;;;;;11.10;9.10;;;25.40;99.90;;;;;;5030642;28;20156;-65
2022/07/23 00:07:29;;;;;;;19.57;10.60;;;25.50;99.90;;;;;;5032531;28;20631;-66
2022/07/23 00:09:54;;;;;;;10.20;9.20;;;25.50;99.90;;;;;;5036382;28;20417;-66
2022/07/23 00:12:21;;;;;;;14.73;9.03;;;25.30;99.90;;;;;;5041057;28;20192;-66
2022/07/23 00:14:46;;;;;;;9.73;8.83;;;25.30;99.90;;;;;;5037088;28;20178;-65
2022/07/23 00:17:12;;;;;;;9.80;8.90;;;25.20;99.90;;;;;;5039144;28;20486;-65
2022/07/23 00:19:38;;;;;;;9.77;8.40;;;25.10;99.90;;;;;;5043088;28;20190;-65
2022/07/23 00:22:03;;;;;;;9.63;8.73;;;25.10;99.90;;;;;;5031899;28;20199;-65
2022/07/23 00:24:29;;;;;;;9.30;8.60;;;25.00;99.90;;;;;;5030949;28;20167;-65
2022/07/23 00:26:55;;;;;;;9.60;8.60;;;24.80;99.90;;;;;;5044841;28;20302;-65
2022/07/23 00:29:21;;;;;;;42.23;11.97;;;24.80;99.90;;;;;;5044006;28;20930;-65
2022/07/23 00:31:47;;;;;;;16.23;9.70;;;24.90;99.90;;;;;;5039285;28;20213;-65
2022/07/23 00:34:12;;;;;;;11.07;9.60;;;24.80;99.90;;;;;;5031205;28;20304;-65
2022/07/23 00:36:38;;;;;;;10.63;9.20;;;24.70;99.90;;;;;;5037437;28;20526;-65
2022/07/23 00:39:04;;;;;;;11.10;8.87;;;24.60;99.90;;;;;;5042910;28;20244;-65
2022/07/23 00:41:30;;;;;;;10.50;8.90;;;24.20;99.90;;;;;;5037168;28;20409;-66
2022/07/23 00:43:56;;;;;;;9.30;8.50;;;24.10;99.90;;;;;;5041985;28;20575;-66
2022/07/23 00:46:22;;;;;;;9.67;8.37;;;24.10;99.90;;;;;;5031318;28;20168;-65
2022/07/23 00:48:48;;;;;;;31.13;12.20;;;24.20;99.90;;;;;;5030937;28;20179;-66
2022/07/23 00:51:17;;;;;;;9.47;8.43;;;24.10;99.90;;;;;;5051082;28;20461;-65
2022/07/23 00:53:44;;;;;;;17.13;9.00;;;24.20;99.90;;;;;;5053953;28;20436;-66
2022/07/23 00:56:10;;;;;;;8.83;7.87;;;24.10;99.90;;;;;;5030943;28;20445;-65
2022/07/23 00:58:38;;;;;;;9.93;8.30;;;24.00;99.90;;;;;;5029831;28;20940;-66
2022/07/23 01:01:04;;;;;;;12.23;9.23;;;23.50;99.90;;;;;;5031464;28;20411;-66
2022/07/23 01:03:30;;;;;;;9.23;8.20;;;23.00;1.00;;;;;;5041921;28;20837;-66
2022/07/23 01:05:56;;;;;;;18.00;10.00;;;22.80;1.00;;;;;;5042840;28;20171;-65
2022/07/23 01:08:22;;;;;;;9.73;8.87;;;22.90;1.00;;;;;;5038433;28;20176;-66
2022/07/23 01:10:51;;;;;;;15.70;8.37;;;23.30;1.00;;;;;;5040208;28;20417;-65
2022/07/23 01:13:16;;;;;;;10.10;9.07;;;23.60;1.00;;;;;;5044221;28;20198;-65
2022/07/23 01:15:42;;;;;;;9.90;9.07;;;23.90;1.00;;;;;;5042152;28;20757;-65
2022/07/23 01:18:08;;;;;;;12.77;10.07;;;24.00;1.00;;;;;;5034310;28;20188;-65
2022/07/23 01:20:34;;;;;;;10.10;8.87;;;24.10;1.00;;;;;;5035043;28;20181;-65
2022/07/23 01:23:00;;;;;;;10.07;8.97;;;24.00;1.00;;;;;;5043332;28;20446;-66
2022/07/23 01:25:26;;;;;;;10.40;8.53;;;24.00;1.00;;;;;;5044117;28;20902;-65
2022/07/23 01:27:53;;;;;;;9.60;8.80;;;24.00;1.00;;;;;;5035035;28;20510;-65
2022/07/23 01:30:19;;;;;;;15.70;9.53;;;24.10;1.00;;;;;;5047096;28;20611;-66
2022/07/23 01:32:45;;;;;;;13.23;9.63;;;24.10;1.00;;;;;;5041744;28;20425;-66
2022/07/23 01:35:11;;;;;;;15.60;9.77;;;24.20;1.00;;;;;;5042835;28;20171;-66
2022/07/23 01:37:37;;;;;;;16.07;9.50;;;24.30;99.90;;;;;;5030223;28;20172;-64
2022/07/23 01:40:04;;;;;;;13.23;9.07;;;24.30;99.90;;;;;;5042627;28;20263;-66
2022/07/23 01:42:30;;;;;;;15.20;9.37;;;24.30;99.90;;;;;;5030713;28;20481;-65
2022/07/23 01:44:56;;;;;;;9.27;8.47;;;24.20;99.90;;;;;;5031475;28;20449;-66
2022/07/23 01:47:22;;;;;;;8.90;8.00;;;23.80;99.90;;;;;;5030244;28;20612;-66
2022/07/23 01:49:48;;;;;;;9.23;8.37;;;23.00;1.00;;;;;;5030400;28;20203;-67
2022/07/23 01:52:13;;;;;;;11.03;8.20;;;22.70;1.00;;;;;;5052441;28;20183;-66
2022/07/23 01:54:39;;;;;;;10.70;8.27;;;22.80;1.00;;;;;;5045247;28;20699;-66
2022/07/23 01:57:06;;;;;;;11.73;9.40;;;22.70;1.00;;;;;;5033052;28;20193;-66
2022/07/23 01:59:32;;;;;;;11.53;9.63;;;22.90;1.00;;;;;;5032672;28;20287;-67
2022/07/23 02:01:57;;;;;;;9.20;8.30;;;23.30;1.00;;;;;;5031518;28;20509;-66
2022/07/23 02:04:24;;;;;;;9.67;8.67;;;23.40;1.00;;;;;;5043152;28;20179;-65
2022/07/23 02:06:50;;;;;;;10.53;9.30;;;23.40;1.00;;;;;;5043774;28;20587;-66
2022/07/23 02:09:16;;;;;;;9.80;8.90;;;23.50;1.00;;;;;;5044175;28;20445;-65
2022/07/23 02:11:42;;;;;;;10.70;9.40;;;23.60;1.00;;;;;;5032972;28;20549;-66
2022/07/23 02:14:08;;;;;;;16.83;10.10;;;23.50;1.00;;;;;;5033255;28;20781;-65
2022/07/23 02:16:34;;;;;;;11.13;10.20;;;23.40;1.00;;;;;;5033541;28;20418;-65
2022/07/23 02:19:00;;;;;;;11.53;10.40;;;23.30;1.00;;;;;;5042789;28;20191;-65
2022/07/23 02:21:26;;;;;;;10.83;9.73;;;23.10;1.00;;;;;;5039161;28;20460;-65
2022/07/23 02:23:51;;;;;;;16.13;11.70;;;22.90;1.00;;;;;;5033987;28;20513;-65
2022/07/23 02:26:17;;;;;;;19.03;10.60;;;22.80;1.00;;;;;;5033136;28;20570;-65
2022/07/23 02:28:43;;;;;;;10.90;10.00;;;22.90;1.00;;;;;;5032203;28;20175;-65
2022/07/23 02:31:08;;;;;;;11.17;10.23;;;22.70;99.90;;;;;;5033868;28;20667;-66
2022/07/23 02:33:34;;;;;;;13.70;10.87;;;22.50;99.90;;;;;;5031233;28;20219;-65
2022/07/23 02:36:00;;;;;;;11.47;10.30;;;22.50;1.00;;;;;;5034328;28;20182;-65
2022/07/23 02:38:26;;;;;;;11.37;10.27;;;22.60;1.00;;;;;;5032267;28;20195;-65
2022/07/23 02:40:51;;;;;;;11.57;9.57;;;22.80;99.90;;;;;;5016191;28;20353;-65
2022/07/23 02:43:17;;;;;;;11.90;10.50;;;23.00;99.90;;;;;;5031842;28;20188;-65
2022/07/23 02:45:43;;;;;;;16.60;10.53;;;23.20;21.40;;;;;;5046021;28;20315;-66
2022/07/23 02:48:09;;;;;;;15.93;11.13;;;23.30;1.00;;;;;;5044524;28;20202;-66
2022/07/23 02:50:34;;;;;;;11.70;10.70;;;23.40;1.00;;;;;;5053020;28;20182;-65
2022/07/23 02:53:00;;;;;;;17.13;12.33;;;23.40;1.00;;;;;;5056642;28;20278;-65
2022/07/23 02:55:26;;;;;;;13.00;10.50;;;23.40;1.00;;;;;;5042054;28;20179;-66
2022/07/23 02:57:52;;;;;;;13.03;11.37;;;23.50;1.00;;;;;;5033058;28;20184;-66
2022/07/23 03:00:18;;;;;;;12.07;10.53;;;23.50;1.00;;;;;;5032423;28;20281;-64
2022/07/23 03:02:44;;;;;;;18.67;11.07;;;23.60;1.00;;;;;;5037617;28;20453;-66
2022/07/23 03:05:10;;;;;;;11.20;10.10;;;23.60;1.00;;;;;;5041569;28;20175;-65
2022/07/23 03:07:35;;;;;;;18.97;10.73;;;23.60;1.00;;;;;;5043916;28;20196;-66
2022/07/23 03:10:02;;;;;;;11.57;10.60;;;23.60;1.00;;;;;;5041215;28;20429;-65
2022/07/23 03:12:28;;;;;;;11.27;10.10;;;23.60;1.00;;;;;;5031634;28;20198;-65
2022/07/23 03:14:54;;;;;;;14.97;10.50;;;23.50;1.00;;;;;;5033554;28;21012;-65
2022/07/23 03:17:19;;;;;;;11.47;10.30;;;23.50;1.00;;;;;;5030325;28;20172;-66
2022/07/23 03:19:45;;;;;;;13.60;10.53;;;23.00;1.00;;;;;;5043583;28;20476;-66
2022/07/23 03:22:11;;;;;;;22.30;12.17;;;22.70;1.00;;;;;;5041028;28;20178;-66
2022/07/23 03:24:55;;;;;;;16.77;10.40;;;22.60;99.90;;;;;;5046608;28;20599;-66
2022/07/23 03:27:28;;;;;;;36.73;12.63;;;22.80;99.90;;;;;;5037532;28;20262;-65
2022/07/23 03:29:55;;;;;;;23.67;11.07;;;23.00;1.00;;;;;;5032597;28;20521;-65
2022/07/23 03:32:21;;;;;;;14.07;10.80;;;23.00;1.00;;;;;;5036269;28;20453;-64
2022/07/23 03:34:48;;;;;;;17.80;10.60;;;23.30;1.00;;;;;;5042508;28;20500;-66
2022/07/23 03:37:14;;;;;;;11.50;10.40;;;23.10;1.00;;;;;;5045347;28;20421;-67
2022/07/23 03:39:40;;;;;;;12.40;10.63;;;23.10;1.00;;;;;;5047517;28;20452;-64
2022/07/23 03:42:06;;;;;;;21.90;11.93;;;23.10;1.00;;;;;;5042348;28;20426;-63
2022/07/23 03:44:32;;;;;;;11.43;10.23;;;23.20;1.00;;;;;;5045157;28;20258;-63
2022/07/23 03:46:58;;;;;;;15.83;11.83;;;23.30;1.00;;;;;;5034922;28;20780;-63
2022/07/23 03:49:24;;;;;;;18.60;10.67;;;23.40;1.00;;;;;;5038211;28;20449;-62
2022/07/23 03:51:49;;;;;;;13.20;9.87;;;23.50;1.00;;;;;;5046860;28;20187;-63
2022/07/23 03:54:15;;;;;;;22.70;10.50;;;23.50;1.00;;;;;;5053968;28;20194;-63
2022/07/23 03:56:42;;;;;;;39.37;12.70;;;23.60;1.00;;;;;;5033984;28;20179;-62
2022/07/23 03:59:08;;;;;;;11.73;10.30;;;23.40;1.00;;;;;;5040705;28;20206;-63
2022/07/23 04:01:34;;;;;;;49.00;13.83;;;23.20;1.00;;;;;;5037989;28;20751;-63
2022/07/23 04:04:00;;;;;;;22.97;10.70;;;23.10;1.00;;;;;;5043567;28;20462;-62
2022/07/23 04:06:26;;;;;;;15.80;10.50;;;23.10;1.00;;;;;;5043123;28;20190;-63
2022/07/23 04:08:52;;;;;;;24.17;12.53;;;23.10;99.90;;;;;;5040797;28;20426;-62
2022/07/23 04:11:18;;;;;;;27.13;12.53;;;23.20;99.90;;;;;;5030782;28;20175;-63
2022/07/23 04:13:43;;;;;;;16.33;10.70;;;23.20;1.00;;;;;;5030479;28;20195;-63
2022/07/23 04:16:09;;;;;;;15.27;10.33;;;23.00;99.90;;;;;;5034307;28;20190;-63
2022/07/23 04:18:35;;;;;;;31.27;12.17;;;22.80;1.00;;;;;;5042204;28;20286;-63
2022/07/23 04:21:01;;;;;;;19.90;10.77;;;23.10;1.00;;;;;;5037039;28;20437;-61
2022/07/23 04:23:27;;;;;;;24.17;11.60;;;23.10;1.00;;;;;;5030782;28;20283;-61
2022/07/23 04:25:52;;;;;;;27.30;11.80;;;23.10;1.00;;;;;;5032478;28;20511;-62
2022/07/23 04:28:18;;;;;;;29.73;12.57;;;23.00;99.90;;;;;;5029870;28;20253;-62
2022/07/23 04:30:44;;;;;;;19.10;9.83;;;23.00;1.00;;;;;;5031335;28;20211;-60
2022/07/23 04:33:10;;;;;;;14.37;11.80;;;22.80;1.00;;;;;;5028822;28;21087;-62
2022/07/23 04:35:36;;;;;;;12.40;10.77;;;22.80;1.00;;;;;;5031201;28;20234;-61
2022/07/23 04:38:03;;;;;;;35.43;12.23;;;22.90;1.00;;;;;;5041741;28;20178;-62
2022/07/23 04:40:29;;;;;;;23.40;11.30;;;23.00;1.00;;;;;;5044998;28;20435;-62
2022/07/23 04:42:57;;;;;;;17.80;10.17;;;22.80;1.00;;;;;;5032537;28;20442;-60
2022/07/23 04:45:25;;;;;;;13.00;11.70;;;22.40;1.00;;;;;;5041129;28;20429;-63
2022/07/23 04:47:51;;;;;;;19.07;11.07;;;22.40;1.00;;;;;;5032853;28;20772;-61
2022/07/23 04:50:21;;;;;;;14.60;11.50;;;22.70;1.00;;;;;;5035526;28;20432;-62
2022/07/23 04:52:50;;;;;;;17.13;10.60;;;23.10;1.00;;;;;;5048302;28;20203;-60
2022/07/23 04:55:16;;;;;;;16.80;11.17;;;23.20;1.00;;;;;;5024454;28;20496;-63
2022/07/23 04:57:42;;;;;;;18.73;10.97;;;23.20;1.00;;;;;;5030693;28;20461;-64
2022/07/23 05:00:08;;;;;;;14.13;11.90;;;23.10;1.00;;;;;;5033714;28;20825;-63
2022/07/23 05:02:34;;;;;;;52.47;14.87;;;23.10;1.00;;;;;;5022519;28;20223;-64
2022/07/23 05:05:00;;;;;;;32.23;13.20;;;23.10;1.00;;;;;;5023151;28;20946;-64
2022/07/23 05:07:25;;;;;;;22.27;11.83;;;23.10;1.00;;;;;;5023860;28;20202;-63
2022/07/23 05:09:51;;;;;;;23.10;12.63;;;23.00;1.00;;;;;;5013910;28;20191;-62
2022/07/23 05:12:17;;;;;;;13.37;10.57;;;22.80;1.00;;;;;;5009764;28;20200;-62
2022/07/23 05:14:43;;;;;;;14.00;12.63;;;22.50;51.10;;;;;;5010566;28;20176;-61
2022/07/23 05:17:08;;;;;;;20.00;10.53;;;22.30;99.90;;;;;;5010198;28;20585;-62
2022/07/23 05:19:34;;;;;;;27.97;13.30;;;22.50;99.90;;;;;;5009225;28;20211;-60
2022/07/23 05:22:00;;;;;;;19.63;12.23;;;22.70;99.90;;;;;;5022062;28;20184;-61
2022/07/23 05:24:26;;;;;;;39.93;14.70;;;23.00;1.00;;;;;;5023726;28;20517;-62
2022/07/23 05:26:52;;;;;;;14.80;12.13;;;23.20;1.00;;;;;;5023083;28;20183;-63
2022/07/23 05:29:18;;;;;;;17.03;11.80;;;23.10;1.00;;;;;;5023127;28;20182;-64
2022/07/23 05:31:44;;;;;;;21.03;11.97;;;22.90;1.00;;;;;;5027736;28;20422;-63
2022/07/23 05:34:10;;;;;;;19.80;9.80;;;22.80;1.00;;;;;;5019242;28;20226;-63
2022/07/23 05:36:35;;;;;;;14.53;11.30;;;23.30;1.00;;;;;;5013811;28;20481;-61
2022/07/23 05:39:02;;;;;;;13.67;12.33;;;23.50;1.00;;;;;;5013268;28;20204;-63
2022/07/23 05:41:27;;;;;;;18.93;12.10;;;23.40;1.00;;;;;;5013411;28;20173;-62
2022/07/23 05:43:54;;;;;;;26.07;13.23;;;23.30;1.00;;;;;;5018097;28;20864;-61
2022/07/23 05:46:19;;;;;;;16.03;11.30;;;23.00;1.00;;;;;;5013904;28;20495;-62
2022/07/23 05:48:49;;;;;;;16.93;10.90;;;22.80;1.00;;;;;;5011554;28;20430;-63
2022/07/23 05:51:22;;;;;;;14.80;12.17;;;22.80;22.90;;;;;;5027094;28;20321;-63
2022/07/23 05:53:49;;;;;;;20.97;13.60;;;22.70;99.90;;;;;;5026959;28;20441;-62
2022/07/23 05:56:16;;;;;;;22.70;13.07;;;22.60;1.00;;;;;;5026961;28;21100;-61
2022/07/23 05:58:42;;;;;;;22.90;13.20;;;22.70;99.90;;;;;;5018402;28;20455;-62
2022/07/23 06:01:08;;;;;;;13.87;12.47;;;22.70;99.90;;;;;;5014908;28;20414;-62
2022/07/23 06:03:34;;;;;;;21.40;13.03;;;22.90;99.90;;;;;;5012187;28;20542;-59
2022/07/23 06:05:59;;;;;;;51.93;18.13;;;23.00;99.90;;;;;;5017604;28;20685;-63
2022/07/23 06:08:25;;;;;;;27.43;12.50;;;22.80;99.90;;;;;;5025848;28;20207;-61
2022/07/23 06:10:51;;;;;;;18.17;12.80;;;23.00;53.60;;;;;;5011827;28;20670;-63
2022/07/23 06:13:20;;;;;;;21.93;12.43;;;23.60;1.00;;;;;;5024409;28;20650;-61
2022/07/23 06:15:46;;;;;;;15.23;11.13;;;23.50;1.00;;;;;;5013125;28;20183;-61
2022/07/23 06:18:11;;;;;;;12.53;11.33;;;23.20;1.00;;;;;;5011808;28;20418;-62
2022/07/23 06:20:37;;;;;;;16.43;11.17;;;23.20;1.00;;;;;;5026951;28;20606;-62
2022/07/23 06:23:04;;;;;;;12.27;10.97;;;23.30;1.00;;;;;;5025407;28;20204;-61
2022/07/23 06:25:29;;;;;;;33.17;13.40;;;23.20;1.00;;;;;;5027414;28;20176;-62
2022/07/23 06:27:55;;;;;;;27.70;12.30;;;23.40;1.00;;;;;;5025173;28;20422;-60
2022/07/23 06:30:21;;;;;;;18.07;12.97;;;23.60;1.00;;;;;;5019040;28;20184;-63
2022/07/23 06:32:48;;;;;;;15.40;10.83;;;23.70;1.00;;;;;;5019302;28;20601;-62
2022/07/23 06:35:14;;;;;;;14.07;10.97;;;23.40;1.00;;;;;;5028588;28;20202;-62
2022/07/23 06:37:39;;;;;;;18.10;12.73;;;23.20;1.00;;;;;;5017669;28;20473;-63
2022/07/23 06:40:06;;;;;;;27.33;14.33;;;23.10;1.00;;;;;;5014137;28;20462;-60
2022/07/23 06:42:31;;;;;;;36.07;15.70;;;23.10;1.00;;;;;;5026621;28;20188;-61
2022/07/23 06:44:57;;;;;;;49.70;15.27;;;23.10;1.00;;;;;;5019040;28;20761;-60
2022/07/23 06:47:23;;;;;;;28.77;13.80;;;23.20;1.00;;;;;;4992782;28;20290;-60
2022/07/23 06:49:51;;;;;;;14.93;12.03;;;23.20;1.00;;;;;;5012523;28;20574;-64
2022/07/23 06:52:16;;;;;;;15.60;11.67;;;23.30;1.00;;;;;;5026762;28;20186;-64
2022/07/23 06:54:42;;;;;;;28.77;14.87;;;23.20;1.00;;;;;;5018002;28;20518;-67
2022/07/23 06:57:08;;;;;;;20.77;13.97;;;23.20;1.00;;;;;;5008800;28;20180;-66
2022/07/23 06:59:36;;;;;;;26.37;12.93;;;23.30;1.00;;;;;;5011446;28;20611;-64
2022/07/23 07:02:02;;;;;;;16.93;13.07;;;23.50;1.00;;;;;;5013310;28;20195;-67
2022/07/23 07:04:27;;;;;;;16.37;12.30;;;23.60;1.00;;;;;;5018624;28;20952;-67
2022/07/23 07:06:53;;;;;;;24.20;12.80;;;23.90;1.00;;;;;;5015105;28;20184;-66
2022/07/23 07:09:19;;;;;;;18.13;11.63;;;23.90;1.00;;;;;;5011585;28;20175;-67
2022/07/23 07:11:44;;;;;;;29.10;13.47;;;24.20;1.00;;;;;;5011747;28;20684;-66
2022/07/23 07:14:10;;;;;;;37.87;14.93;;;24.50;99.90;;;;;;5012841;28;20218;-67
2022/07/23 07:16:36;;;;;;;14.97;12.13;;;25.00;99.90;;;;;;5011520;28;20560;-66
2022/07/23 07:19:01;;;;;;;17.00;11.30;;;25.20;99.90;;;;;;5010826;28;20196;-66
2022/07/23 07:21:27;;;;;;;18.83;11.53;;;25.30;99.90;;;;;;5016524;28;20172;-68
2022/07/23 07:23:53;;;;;;;17.03;11.60;;;25.30;99.90;;;;;;5018574;28;20216;-68
2022/07/23 07:26:18;;;;;;;18.27;11.60;;;25.30;99.90;;;;;;5017776;28;20163;-68
2022/07/23 07:28:44;;;;;;;14.90;11.40;;;25.50;99.90;;;;;;5015838;28;20179;-68
2022/07/23 07:31:10;;;;;;;26.13;13.53;;;25.60;99.90;;;;;;5015960;28;20844;-67
2022/07/23 07:33:36;;;;;;;62.83;13.63;;;25.50;99.90;;;;;;5014007;28;20206;-68
2022/07/23 07:36:01;;;;;;;21.10;11.10;;;26.00;99.90;;;;;;5019350;28;20265;-68
2022/07/23 07:38:27;;;;;;;27.73;12.50;;;26.30;99.90;;;;;;5018569;28;20268;-66
2022/07/23 07:40:53;;;;;;;17.73;9.67;;;26.60;99.90;;;;;;5018022;28;20222;-66
2022/07/23 07:43:18;;;;;;;11.13;9.37;;;26.70;99.90;;;;;;5019691;28;20191;-67
2022/07/23 07:45:44;;;;;;;11.00;9.03;;;26.40;99.90;;;;;;5021898;28;20172;-67
2022/07/23 07:48:10;;;;;;;18.77;9.73;;;26.10;99.90;;;;;;5017716;28;20367;-68
2022/07/23 07:50:36;;;;;;;16.40;10.13;;;26.30;99.90;;;;;;5019473;28;20195;-67
2022/07/23 07:53:01;;;;;;;19.57;10.80;;;26.70;99.90;;;;;;5010926;28;20279;-67
2022/07/23 07:55:28;;;;;;;17.10;9.90;;;27.10;99.90;;;;;;5021010;28;20232;-66
2022/07/23 07:57:54;;;;;;;28.17;10.73;;;27.10;99.90;;;;;;5026183;28;20837;-68
2022/07/23 08:00:19;;;;;;;20.17;10.60;;;27.10;99.90;;;;;;5020902;28;20460;-65
2022/07/23 08:02:48;;;;;;;35.00;12.03;;;27.20;99.90;;;;;;5017757;28;20719;-66
2022/07/23 08:05:14;;;;;;;14.40;10.37;;;27.10;99.90;;;;;;5017254;28;20529;-67
2022/07/23 08:07:40;;;;;;;25.20;11.20;;;27.00;99.90;;;;;;5017726;28;20398;-67
2022/07/23 08:10:09;;;;;;;36.73;11.80;;;27.30;99.90;;;;;;5017738;28;20411;-68
2022/07/23 08:12:39;;;;;;;17.07;9.10;;;27.70;99.90;;;;;;5024672;28;20622;-68
2022/07/23 08:15:06;;;;;;;10.17;8.83;;;27.80;99.90;;;;;;5038214;28;20417;-67
2022/07/23 08:17:32;;;;;;;10.17;8.63;;;28.00;99.90;;;;;;5034943;28;20417;-68
2022/07/23 08:19:57;;;;;;;14.27;9.10;;;27.70;99.90;;;;;;5017535;28;20563;-68
2022/07/23 08:22:23;;;;;;;11.60;8.37;;;27.60;99.90;;;;;;5037324;28;20198;-67
2022/07/23 08:24:49;;;;;;;22.33;9.87;;;27.50;99.90;;;;;;5036038;28;20163;-67
2022/07/23 08:27:14;;;;;;;24.43;9.70;;;27.60;99.90;;;;;;5037764;28;20209;-67
2022/07/23 08:29:40;;;;;;;21.87;8.17;;;27.70;99.90;;;;;;5035749;28;20174;-67
2022/07/23 08:32:06;;;;;;;20.80;10.13;;;27.50;99.90;;;;;;5038509;28;20265;-68
2022/07/23 08:34:31;;;;;;;14.03;8.70;;;27.40;99.90;;;;;;5035946;28;20309;-68
2022/07/23 08:36:57;;;;;;;18.10;9.80;;;27.50;99.90;;;;;;5034461;28;20770;-67
2022/07/23 08:39:23;;;;;;;10.07;8.50;;;27.60;99.90;;;;;;5034635;28;20203;-67
2022/07/23 08:41:49;;;;;;;22.30;9.93;;;27.70;99.90;;;;;;5035784;28;20284;-67
2022/07/23 08:44:17;;;;;;;17.27;10.03;;;27.70;99.90;;;;;;5039410;28;20216;-67
2022/07/23 08:46:44;;;;;;;13.83;9.20;;;27.50;99.90;;;;;;5035539;28;20418;-67
2022/07/23 08:49:10;;;;;;;15.50;9.80;;;27.30;99.90;;;;;;5036079;28;20444;-67
2022/07/23 08:51:36;;;;;;;9.30;8.40;;;27.50;99.90;;;;;;5044851;28;20416;-67
2022/07/23 08:54:04;;;;;;;16.60;8.83;;;27.60;99.90;;;;;;5039462;28;20952;-68
2022/07/23 08:56:29;;;;;;;11.50;10.07;;;27.40;99.90;;;;;;5036303;28;20250;-67
2022/07/23 08:58:55;;;;;;;20.57;9.70;;;27.20;99.90;;;;;;5035355;28;20606;-68
2022/07/23 09:01:22;;;;;;;13.57;9.07;;;27.00;99.90;;;;;;5034674;28;20636;-68
2022/07/23 09:03:48;;;;;;;11.37;9.90;;;26.70;99.90;;;;;;5035842;28;20459;-67
2022/07/23 09:06:13;;;;;;;10.03;9.13;;;26.60;99.90;;;;;;5035984;28;20173;-68
2022/07/23 09:08:44;;;;;;;18.10;10.73;;;26.50;99.90;;;;;;5034282;28;20450;-67
2022/07/23 09:11:13;;;;;;;12.63;9.00;;;26.70;99.90;;;;;;5041671;28;20175;-67
2022/07/23 09:13:46;;;;;;;13.23;9.73;;;26.70;99.90;;;;;;5033376;28;20440;-68
2022/07/23 09:16:16;;;;;;;12.13;10.00;;;26.70;99.90;;;;;;5047223;28;20539;-67
2022/07/23 09:18:57;;;;;;;12.77;9.00;;;26.60;99.90;;;;;;5045613;28;20456;-68
2022/07/23 09:21:32;;;;;;;14.00;10.27;;;26.60;99.90;;;;;;5040616;28;20423;-67
2022/07/23 09:24:08;;;;;;;17.47;10.20;;;26.70;99.90;;;;;;5045636;28;20486;-68
2022/07/23 09:26:40;;;;;;;10.23;8.83;;;27.10;99.90;;;;;;5047705;28;20503;-67
2022/07/23 09:29:15;;;;;;;25.87;11.47;;;27.40;99.90;;;;;;5045721;28;20470;-67
2022/07/23 09:32:07;;;;;;;17.53;9.40;;;27.80;99.90;;;;;;5040981;28;20453;-67
2022/07/23 09:34:43;;;;;;;19.33;10.43;;;27.90;99.90;;;;;;5032476;28;20425;-68
2022/07/23 09:37:14;;;;;;;18.73;9.40;;;27.70;99.90;;;;;;5033382;28;20447;-67
2022/07/23 09:39:41;;;;;;;33.13;13.43;;;27.80;99.90;;;;;;5032944;28;20457;-67
2022/07/23 09:42:24;;;;;;;15.40;9.90;;;27.80;99.90;;;;;;5034036;28;20790;-67
2022/07/23 09:44:55;;;;;;;18.37;10.53;;;27.70;99.90;;;;;;5037461;28;20505;-67
2022/07/23 09:47:22;;;;;;;10.40;9.47;;;27.60;99.90;;;;;;5040024;28;20524;-67
2022/07/23 09:50:08;;;;;;;14.10;11.90;;;27.70;99.90;;;;;;5034543;28;20507;-67
2022/07/23 09:52:42;;;;;;;22.80;12.10;;;27.70;99.90;;;;;;5040990;28;21494;-68
2022/07/23 09:55:08;;;;;;;16.80;10.07;;;27.60;99.90;;;;;;5044431;28;20757;-68
2022/07/23 09:57:34;;;;;;;20.33;12.63;;;27.50;99.90;;;;;;5043094;28;20567;-67
2022/07/23 10:00:07;;;;;;;16.57;9.37;;;27.30;99.90;;;;;;5045487;28;20542;-67
2022/07/23 10:02:33;;;;;;;12.50;11.33;;;27.50;99.90;;;;;;5045754;28;20190;-66
2022/07/23 10:05:01;;;;;;;11.03;10.13;;;27.60;99.90;;;;;;5045913;28;20725;-66
2022/07/23 10:07:29;;;;;;;15.27;11.63;;;27.60;99.90;;;;;;5041135;28;20463;-67
2022/07/23 10:09:57;;;;;;;17.40;11.33;;;27.50;99.90;;;;;;5036850;28;20433;-66
2022/07/23 10:15:07;;;;;;;15.10;11.13;;;27.90;99.90;;;;;;5034267;28;20536;-66
2022/07/23 10:17:33;;;;;;;13.40;10.27;;;28.10;99.90;;;;;;5044962;28;20462;-66
2022/07/23 10:19:59;;;;;;;15.13;11.10;;;28.20;99.90;;;;;;5035264;28;20935;-67
2022/07/23 10:22:27;;;;;;;17.47;10.63;;;28.00;99.90;;;;;;5035236;28;20515;-67
2022/07/23 10:25:19;;;;;;;14.50;11.33;;;28.00;99.90;;;;;;5052849;28;20178;-66
2022/07/23 10:27:57;;;;;;;11.70;10.60;;;27.80;99.90;;;;;;5031805;28;20467;-65
2022/07/23 10:30:55;;;;;;;13.23;10.90;;;27.70;99.90;;;;;;5037409;28;20929;-65
2022/07/23 10:33:46;;;;;;;17.77;11.17;;;27.70;99.90;;;;;;5020539;28;20445;-67
2022/07/23 10:36:29;;;;;;;11.73;10.60;;;27.70;99.90;;;;;;5038851;28;20507;-65
2022/07/23 10:39:14;;;;;;;16.07;10.80;;;27.50;99.90;;;;;;5031907;28;20457;-65
2022/07/23 10:41:41;;;;;;;21.40;11.83;;;27.70;99.90;;;;;;5037458;28;20882;-64
2022/07/23 10:44:17;;;;;;;23.57;12.57;;;28.10;99.90;;;;;;5040789;28;20473;-65
2022/07/23 10:49:32;;;;;;;20.10;11.37;;;28.20;99.90;;;;;;5035526;28;20468;-65
2022/07/23 10:52:18;;;;;;;17.17;11.30;;;28.00;99.90;;;;;;5057215;28;20431;-66
2022/07/23 10:55:14;;;;;;;15.83;12.03;;;28.20;99.90;;;;;;5032116;28;20419;-66
2022/07/23 10:57:50;;;;;;;11.80;10.60;;;28.30;99.90;;;;;;4950524;28;20548;-65
2022/07/23 11:00:23;;;;;;;35.03;12.60;;;28.40;99.90;;;;;;5040756;28;20455;-67
2022/07/23 11:02:51;;;;;;;35.67;15.43;;;28.20;99.90;;;;;;5041430;28;20831;-65
2022/07/23 11:05:23;;;;;;;21.57;12.30;;;28.30;99.90;;;;;;5040043;28;20429;-66
2022/07/23 11:08:03;;;;;;;18.03;11.43;;;28.20;99.90;;;;;;5032243;28;20421;-68
2022/07/23 11:10:35;;;;;;;18.63;11.07;;;28.30;99.90;;;;;;5045352;28;20924;-68
2022/07/23 11:13:22;;;;;;;17.00;11.93;;;28.60;99.90;;;;;;5037218;28;20445;-68
2022/07/23 11:16:06;;;;;;;25.73;12.03;;;28.70;99.90;;;;;;5031447;28;20441;-69
2022/07/23 11:18:52;;;;;;;13.40;11.60;;;28.50;99.90;;;;;;5044108;28;20475;-66
2022/07/23 11:21:26;;;;;;;17.43;11.73;;;28.40;99.90;;;;;;5043749;28;20512;-66
2022/07/23 11:24:16;;;;;;;12.43;11.17;;;28.50;99.90;;;;;;5031869;28;20466;-68
2022/07/23 11:26:54;;;;;;;33.23;14.00;;;28.40;99.90;;;;;;5031277;28;20421;-67
2022/07/23 11:29:27;;;;;;;68.73;15.27;;;28.70;99.90;;;;;;5044213;28;20420;-68
2022/07/23 11:31:53;;;;;;;15.97;11.27;;;29.00;99.90;;;;;;5039233;28;20432;-68
2022/07/23 11:34:46;;;;;;;17.50;11.90;;;29.20;99.90;;;;;;5030751;28;20446;-67
2022/07/23 11:37:29;;;;;;;20.63;12.23;;;29.20;99.90;;;;;;5030871;28;20158;-69
2022/07/23 11:39:57;;;;;;;15.10;11.30;;;29.40;99.90;;;;;;5030964;28;20507;-66
2022/07/23 11:42:23;;;;;;;26.93;12.83;;;29.20;99.90;;;;;;5031101;28;20429;-68
2022/07/23 11:44:50;;;;;;;20.47;12.37;;;29.40;99.90;;;;;;5042255;28;20438;-66
2022/07/23 11:47:22;;;;;;;33.50;14.93;;;29.40;99.90;;;;;;5030452;28;20417;-68
2022/07/23 11:49:58;;;;;;;22.13;13.37;;;29.50;99.90;;;;;;5029846;28;20752;-68
2022/07/23 11:52:24;;;;;;;21.73;12.63;;;29.50;99.90;;;;;;5045998;28;20451;-68
2022/07/23 11:54:57;;;;;;;13.83;11.97;;;29.40;99.90;;;;;;5045925;28;20420;-65
2022/07/23 11:57:33;;;;;;;21.00;12.00;;;28.90;99.90;;;;;;5040971;28;20520;-67
2022/07/23 12:00:10;;;;;;;19.67;11.53;;;28.70;99.90;;;;;;5030489;28;20489;-69
2022/07/23 12:02:48;;;;;;;20.90;11.97;;;28.70;99.90;;;;;;5029058;28;20440;-66
2022/07/23 12:05:16;;;;;;;17.47;13.20;;;28.70;99.90;;;;;;5043256;28;20410;-68
2022/07/23 12:07:44;;;;;;;16.27;13.63;;;28.50;99.90;;;;;;5043065;28;20524;-67
2022/07/23 12:10:25;;;;;;;31.07;16.90;;;28.20;99.90;;;;;;5042037;28;20464;-67
2022/07/23 12:13:00;;;;;;;15.93;13.00;;;27.40;1.00;;;;;;5029245;28;20514;-68
2022/07/23 12:15:32;;;;;;;18.30;11.97;;;26.60;1.00;;;;;;5044342;28;20916;-68
2022/07/23 12:17:59;;;;;;;52.57;13.60;;;26.20;1.00;;;;;;5041045;28;21313;-67
2022/07/23 12:20:28;;;;;;;94.20;16.60;;;26.20;1.00;;;;;;5041407;28;20817;-68
2022/07/23 12:23:01;;;;;;;25.90;8.67;;;26.10;1.00;;;;;;5032352;28;20531;-67
2022/07/23 12:25:29;;;;;;;35.27;9.83;;;26.00;99.90;;;;;;5044011;28;20567;-68
2022/07/23 12:28:04;;;;;;;14.80;7.40;;;25.80;99.90;;;;;;5042150;28;20594;-68
2022/07/23 12:30:55;;;;;;;26.20;8.27;;;25.50;99.90;;;;;;5029146;28;20432;-68
2022/07/23 12:33:36;;;;;;;16.00;8.90;;;25.60;99.90;;;;;;5020751;28;20530;-68
2022/07/23 12:36:09;;;;;;;29.63;11.00;;;25.80;1.00;;;;;;5030431;28;20835;-67
2022/07/23 12:38:41;;;;;;;18.67;10.00;;;26.10;1.00;;;;;;5028520;28;20511;-68
2022/07/23 12:41:07;;;;;;;18.67;9.23;;;26.20;99.90;;;;;;5030185;28;20418;-68
2022/07/23 12:43:38;;;;;;;16.07;9.80;;;26.50;99.90;;;;;;5029861;28;20536;-68
2022/07/23 12:46:16;;;;;;;16.70;9.63;;;26.60;99.90;;;;;;5032939;28;20414;-68